Besuchen Sie unsere anderen Wetter Stationen:

Template documentation
and downloads

And another site



METAR-Meldungen aus der Umgebung


Warning: A non-numeric value encountered in /is/htdocs/wp10906056_0YHW7Q9XB7/www/weather28/metar/metarDisplay.php on line 166
   
EHVK - Volkel Rnlafb, Netherlands
Entfernung von der Station bis: SW 18 km
Aktualisierung: 04-06-2020 19:55
Bewölkt  
Bewölkt  
   Wind: WNW 11.1 km/h
Wind: WNW 11.1 km/h
Temperatur: 13°C
Taupunkt: 10°C
Luftfeuchte: 82%
Luftdruck: 997 hPa
Bewölkt: Bewölkt
Sichtbarkeit: More than 10 km
Bewölkung: Bewölkt 1706.9 m
EHVK 041755Z AUTO 29006KT 260V340 9999 OVC056 13/10 Q0997 BLU
EDLV - Niederrhein, Germany
Entfernung von der Station bis: SO 25 km
Aktualisierung: 03-06-2020 19:50
Nicht aktuell
Klar  
Klar  
   Wind: NW 11.1 km/h
Wind: NW 11.1 km/h
Temperatur: 21°C
Taupunkt: 9°C
Luftfeuchte: 46%
Luftdruck: 1001 hPa
Sichtbarkeit: More than 10 km
Bewölkung: Klar
EDLV 031750Z 31006KT 280V340 CAVOK 21/09 Q1001
EHDL - Deelen Rnlafb, Netherlands
Entfernung von der Station bis: N 35 km
Aktualisierung: 04-06-2020 19:55
Heavy Drizzle, Stark bewölkt  
Heavy Drizzle, Stark bewölkt  
   Wind: WNW 14.8 km/h
Wind: WNW 14.8 km/h
Temperatur: 11°C
Taupunkt: 11°C
Luftfeuchte: 100%
Luftdruck: 996 hPa
Bewölkt: Stark bewölkt
Sichtbarkeit: 9 km
Bewölkung: leicht bewölkt 213.4 m,
Stark bewölkt 304.8 m,
leicht bewölkt 457.2 m,
Stark bewölkt 487.7 m
EHDL 041755Z AUTO 30008KT 250V360 9000 +DZ FEW007 BKN010 FEW015CB BKN016 11/11 Q0996 GRN
EHEH - Eindhoven Rnlafb, Netherlands
Entfernung von der Station bis: SW 48 km
Aktualisierung: 04-06-2020 20:03
Light Showers, Regen, Heavy Drizzle, Bewölkt  
Light Showers, Regen, Heavy Drizzle, Bewölkt  
   Wind: WNW 16.7 km/h
Wind: WNW 16.7 km/h
Temperatur: 11°C
Taupunkt: 10°C
Luftfeuchte: 94%
Luftdruck: 998 hPa
Bewölkt: Bewölkt
Sichtbarkeit: More than 10 km
Bewölkung: leicht bewölkt 457.2 m,
Teilweise bewölkt 640.1 m,
Bewölkt 762 m
EHEH 041803Z AUTO 30009KT 230V340 9999 -SHRA +DZ FEW015CB SCT021 OVC025 11/10 Q0998 WHT
EHGR - Gilze-Rijen Rnla, Netherlands
Entfernung von der Station bis: WSW 70 km
Aktualisierung: 04-06-2020 19:55
Leichter Nieselregen, Bewölkt  
Leichter Nieselregen, Bewölkt  
   Wind: WNW 27.8 km/h
Wind: WNW 27.8 km/h
Temperatur: 11°C
Taupunkt: 9°C
Luftfeuchte: 88%
Luftdruck: 998 hPa
Bewölkt: Bewölkt
Sichtbarkeit: 9 km
Bewölkung: leicht bewölkt 274.3 m,
Stark bewölkt 1097.3 m,
Bewölkt 1219.2 m
EHGR 041755Z AUTO 30015KT 260V330 9000 -DZ FEW009 BKN036 OVC040 11/09 Q0998 REDZ BLU
EBBL - Kleine-Brogel(Ba, Belgium
Entfernung von der Station bis: SSW 71 km
Aktualisierung: 04-06-2020 19:55
Bewölkt  
Bewölkt  
   Wind: WNW 14.8 km/h
Wind: WNW 14.8 km/h
Temperatur: 12°C
Taupunkt: 9°C
Luftfeuchte: 82%
Luftdruck: 998 hPa
Bewölkt: Bewölkt
Sichtbarkeit: More than 10 km
Bewölkung: Bewölkt 883.9 m
EBBL 041755Z AUTO 29008KT 9999 OVC029/// 12/09 Q0998 BLU

Script entwickelt von  Saratoga-weather.org Angepasst für das Template von  Weerstation Leuven

Sie finden unser Wetter-Infos auch auf:

netzwerkwettercom

European Weather Network

WeatherCloud

Weather Underground

AWEKAS

HAMweather, WeatherForYou, PWS Weather

Von uns verwendete Ausrüstung:

Wetterstation
Davis VP2

Davis VP2